createdAt,value
2023-02-28T00:00:39.820Z,100981.56
2023-02-28T00:03:07.079Z,100978.94
2023-02-28T00:05:34.486Z,100980.66
2023-02-28T00:08:02.014Z,100989.25
2023-02-28T00:10:31.287Z,100985.97
2023-02-28T00:13:05.647Z,100993.41
2023-02-28T00:15:33.317Z,100997.84
2023-02-28T00:18:00.197Z,100989.56
2023-02-28T00:20:27.807Z,100996.56
2023-02-28T00:22:55.170Z,100999.22
2023-02-28T00:25:25.634Z,101008.41
2023-02-28T00:27:52.576Z,101002.97
2023-02-28T00:30:21.942Z,101009.66
2023-02-28T00:32:49.135Z,101008.84
2023-02-28T00:35:16.052Z,101009.47
2023-02-28T00:37:43.567Z,101014.22
2023-02-28T00:40:13.053Z,101015.47
2023-02-28T00:42:40.365Z,101009.34
2023-02-28T00:45:09.341Z,101016.22
2023-02-28T00:47:38.563Z,101018.66
2023-02-28T00:50:06.697Z,101023.34
2023-02-28T00:52:33.576Z,101019.69
2023-02-28T00:55:01.492Z,101022.50
2023-02-28T00:57:30.386Z,101029.97
2023-02-28T00:59:57.286Z,101028.28
2023-02-28T01:02:24.813Z,101030.59
2023-02-28T01:04:53.427Z,101032.47
2023-02-28T01:07:20.345Z,101025.91
2023-02-28T01:09:47.142Z,101026.78
2023-02-28T01:12:13.968Z,101027.63
2023-02-28T01:14:40.814Z,101021.06
2023-02-28T01:17:07.810Z,101021.94
2023-02-28T01:19:34.846Z,101024.59
2023-02-28T01:22:05.112Z,101030.47
2023-02-28T01:24:34.364Z,101025.97
2023-02-28T01:27:01.415Z,101031.91
2023-02-28T01:29:28.245Z,101028.19
2023-02-28T01:31:55.117Z,101031.47
2023-02-28T01:34:22.962Z,101027.34
2023-02-28T01:36:51.731Z,101030.88
2023-02-28T01:39:19.522Z,101032.50
2023-02-28T01:41:46.763Z,101030.66
2023-02-28T01:44:51.033Z,101032.50
2023-02-28T01:47:17.704Z,101036.53
2023-02-28T01:49:45.123Z,101034.81
2023-02-28T01:52:16.270Z,101031.75
2023-02-28T01:54:43.074Z,101039.06
2023-02-28T01:57:18.983Z,101028.72
2023-02-28T01:59:51.904Z,101037.31
2023-02-28T02:02:21.266Z,101033.94
2023-02-28T02:04:54.484Z,101026.19
2023-02-28T02:07:21.593Z,101034.75
2023-02-28T02:09:48.618Z,101034.56
2023-02-28T02:12:37.048Z,101038.03
2023-02-28T02:15:17.099Z,101041.31
2023-02-28T02:17:48.467Z,101044.56
2023-02-28T02:20:31.236Z,101045.81
2023-02-28T02:23:34.265Z,101044.75
2023-02-28T02:26:39.857Z,101046.47
2023-02-28T02:29:33.902Z,101045.09
2023-02-28T02:32:01.913Z,101043.81
2023-02-28T02:34:34.420Z,101048.31
2023-02-28T02:37:30.022Z,101044.13
2023-02-28T02:40:11.645Z,101047.50
2023-02-28T02:43:19.530Z,101039.34
2023-02-28T02:46:06.514Z,101043.63
2023-02-28T02:48:36.244Z,101055.66
2023-02-28T02:51:12.848Z,101040.97
2023-02-28T02:53:50.966Z,101049.75
2023-02-28T02:56:22.297Z,101047.09
2023-02-28T02:58:52.751Z,101048.19
2023-02-28T03:01:29.416Z,101054.72
2023-02-28T03:04:06.553Z,101050.72
2023-02-28T03:06:33.296Z,101052.88
2023-02-28T03:09:01.994Z,101047.88
2023-02-28T03:11:30.519Z,101056.84
2023-02-28T03:14:32.056Z,101050.53
2023-02-28T03:17:23.370Z,101052.31
2023-02-28T03:20:29.045Z,101047.22
2023-02-28T03:23:20.749Z,101049.97
2023-02-28T03:25:57.091Z,101047.31
2023-02-28T03:28:43.695Z,101047.09
2023-02-28T03:31:36.432Z,101050.09
2023-02-28T03:34:12.205Z,101052.25
2023-02-28T03:36:47.543Z,101050.91
2023-02-28T03:39:30.560Z,101052.56
2023-02-28T03:42:02.973Z,101056.84
2023-02-28T03:44:50.898Z,101056.22
2023-02-28T03:47:20.902Z,101063.19
2023-02-28T03:49:54.698Z,101058.50
2023-02-28T03:52:26.407Z,101057.31
2023-02-28T03:55:01.791Z,101063.38
2023-02-28T03:57:59.199Z,101054.53
2023-02-28T04:00:35.407Z,101061.25
2023-02-28T04:03:03.568Z,101057.59
2023-02-28T04:05:31.210Z,101061.88
2023-02-28T04:08:06.686Z,101059.47
2023-02-28T04:10:33.949Z,101057.94
2023-02-28T04:13:00.750Z,101057.84
2023-02-28T04:15:28.397Z,101062.59
2023-02-28T04:17:55.445Z,101062.72
2023-02-28T04:20:22.192Z,101069.03
2023-02-28T04:22:48.933Z,101068.91
2023-02-28T04:25:15.878Z,101071.56
2023-02-28T04:27:42.811Z,101064.84
2023-02-28T04:30:11.314Z,101067.75
2023-02-28T04:32:38.162Z,101065.59
2023-02-28T04:35:05.339Z,101075.06
2023-02-28T04:37:35.852Z,101069.06
2023-02-28T04:40:03.882Z,101077.09
2023-02-28T04:42:36.530Z,101075.28
2023-02-28T04:45:04.820Z,101084.19
2023-02-28T04:47:31.811Z,101081.66
2023-02-28T04:49:58.755Z,101080.75
2023-02-28T04:52:25.787Z,101082.66
2023-02-28T04:54:52.518Z,101079.84
2023-02-28T04:57:19.358Z,101075.09
2023-02-28T04:59:46.092Z,101084.69
2023-02-28T05:02:12.864Z,101076.22
2023-02-28T05:04:39.960Z,101079.38
2023-02-28T05:07:06.787Z,101077.66
2023-02-28T05:09:34.268Z,101076.13
2023-02-28T05:12:01.167Z,101082.66
2023-02-28T05:14:27.940Z,101083.47
2023-02-28T05:16:54.732Z,101086.03
2023-02-28T05:19:22.431Z,101084.75
2023-02-28T05:21:55.245Z,101081.09
2023-02-28T05:24:25.322Z,101081.72
2023-02-28T05:26:54.132Z,101087.25
2023-02-28T05:29:21.200Z,101085.41
2023-02-28T05:31:51.311Z,101091.97
2023-02-28T05:34:18.591Z,101092.69
2023-02-28T05:36:45.442Z,101099.78
2023-02-28T05:39:13.934Z,101096.13
2023-02-28T05:41:42.575Z,101101.78
2023-02-28T05:44:09.720Z,101103.75
2023-02-28T05:46:36.603Z,101103.09
2023-02-28T05:49:03.801Z,101110.38
2023-02-28T05:51:30.911Z,101108.56
2023-02-28T05:54:01.551Z,101116.28
2023-02-28T05:56:28.690Z,101118.25
2023-02-28T05:58:55.594Z,101120.78
2023-02-28T06:01:33.058Z,101124.25
2023-02-28T06:04:04.963Z,101129.16
2023-02-28T06:06:32.245Z,101122.38
2023-02-28T06:08:59.333Z,101124.72
2023-02-28T06:11:28.702Z,101117.19
2023-02-28T06:14:01.505Z,101123.53
2023-02-28T06:16:29.811Z,101129.84
2023-02-28T06:18:59.389Z,101126.97
2023-02-28T06:21:26.352Z,101127.03
2023-02-28T06:23:53.146Z,101131.13
2023-02-28T06:26:20.526Z,101134.91
2023-02-28T06:28:48.025Z,101139.38
2023-02-28T06:31:17.577Z,101135.19
2023-02-28T06:33:45.799Z,101130.91
2023-02-28T06:36:14.337Z,101136.00
2023-02-28T06:38:42.413Z,101137.88
2023-02-28T06:41:09.878Z,101136.84
2023-02-28T06:43:40.014Z,101137.25
2023-02-28T06:46:09.383Z,101136.84
2023-02-28T06:48:37.054Z,101146.66
2023-02-28T06:51:09.600Z,101149.31
2023-02-28T06:53:37.729Z,101147.03
2023-02-28T06:56:09.479Z,101142.28
2023-02-28T06:58:36.817Z,101133.75
2023-02-28T07:01:04.796Z,101151.66
2023-02-28T07:03:34.287Z,101149.97
2023-02-28T07:06:02.113Z,101154.06
2023-02-28T07:08:28.938Z,101156.94
2023-02-28T07:10:57.157Z,101145.81
2023-02-28T07:13:24.691Z,101156.97
2023-02-28T07:15:55.596Z,101152.00
2023-02-28T07:18:22.756Z,101160.81
2023-02-28T07:20:49.464Z,101161.34
2023-02-28T07:23:16.685Z,101150.47
2023-02-28T07:25:43.435Z,101159.47
2023-02-28T07:28:10.247Z,101167.22
2023-02-28T07:30:36.989Z,101171.38
2023-02-28T07:33:04.677Z,101172.63
2023-02-28T07:35:33.106Z,101172.78
2023-02-28T07:38:01.176Z,101171.41
2023-02-28T07:40:28.458Z,101166.69
2023-02-28T07:42:55.311Z,101166.75
2023-02-28T07:45:22.549Z,101176.97
2023-02-28T07:47:49.864Z,101179.41
2023-02-28T07:50:17.874Z,101181.66
2023-02-28T07:52:44.654Z,101183.91
2023-02-28T07:55:11.996Z,101187.81
2023-02-28T07:57:39.795Z,101179.88
2023-02-28T08:00:10.872Z,101176.34
2023-02-28T08:02:41.592Z,101181.66
2023-02-28T08:05:09.306Z,101187.13
2023-02-28T08:07:36.210Z,101178.97
2023-02-28T08:10:04.199Z,101173.72
2023-02-28T08:12:31.012Z,101173.31
2023-02-28T08:14:57.810Z,101177.78
2023-02-28T08:17:24.604Z,101178.47
2023-02-28T08:19:51.372Z,101186.59
2023-02-28T08:22:18.184Z,101187.28
2023-02-28T08:24:45.544Z,101193.22
2023-02-28T08:27:12.548Z,101193.78
2023-02-28T08:29:40.171Z,101192.81
2023-02-28T08:32:17.409Z,101194.34
2023-02-28T08:34:48.806Z,101192.41
2023-02-28T08:37:15.656Z,101199.06
2023-02-28T08:39:42.461Z,101195.41
2023-02-28T08:42:09.626Z,101197.59
2023-02-28T08:44:36.513Z,101207.31
2023-02-28T08:47:03.420Z,101206.50
2023-02-28T08:49:30.250Z,101200.59
2023-02-28T08:51:58.220Z,101195.66
2023-02-28T08:54:25.923Z,101205.63
2023-02-28T08:56:52.741Z,101200.97
2023-02-28T08:59:19.643Z,101190.59
2023-02-28T09:01:46.383Z,101210.03
2023-02-28T09:04:14.561Z,101202.78
2023-02-28T09:06:45.466Z,101209.47
2023-02-28T09:09:12.396Z,101204.47
2023-02-28T09:11:39.167Z,101212.81
2023-02-28T09:14:05.893Z,101201.53
2023-02-28T09:16:34.486Z,101200.50
2023-02-28T09:19:01.829Z,101204.38
2023-02-28T09:21:29.733Z,101210.16
2023-02-28T09:23:56.748Z,101217.31
2023-02-28T09:26:34.787Z,101212.38
2023-02-28T09:29:09.928Z,101205.69
2023-02-28T09:31:36.825Z,101206.16
2023-02-28T09:34:05.300Z,101213.09
2023-02-28T09:36:43.729Z,101204.06
2023-02-28T09:39:13.013Z,101208.97
2023-02-28T09:41:51.762Z,101210.03
2023-02-28T09:44:37.567Z,101195.19
2023-02-28T09:47:30.309Z,101197.13
2023-02-28T09:50:00.860Z,101202.50
2023-02-28T09:52:32.854Z,101207.81
2023-02-28T09:55:26.342Z,101206.31
2023-02-28T09:57:54.282Z,101202.53
2023-02-28T10:00:31.277Z,101197.50
2023-02-28T10:03:24.689Z,101204.38
2023-02-28T10:06:14.508Z,101207.06
2023-02-28T10:08:57.279Z,101208.41
2023-02-28T10:11:25.791Z,101206.22
2023-02-28T10:14:13.828Z,101200.59
2023-02-28T10:17:06.332Z,101205.16
2023-02-28T10:19:47.895Z,101193.47
2023-02-28T10:22:23.161Z,101199.81
2023-02-28T10:24:57.516Z,101190.84
2023-02-28T10:27:32.439Z,101195.78
2023-02-28T10:30:01.986Z,101197.41
2023-02-28T10:32:37.309Z,101189.69
2023-02-28T10:35:16.222Z,101187.16
2023-02-28T10:37:45.709Z,101191.22
2023-02-28T10:40:36.655Z,101184.56
2023-02-28T10:43:05.254Z,101182.78
2023-02-28T10:45:38.182Z,101183.91
2023-02-28T10:48:35.052Z,101174.69
2023-02-28T10:51:04.997Z,101174.81
2023-02-28T10:53:59.537Z,101174.81
2023-02-28T10:56:27.787Z,101171.00
2023-02-28T10:59:04.035Z,101184.44
2023-02-28T11:01:36.748Z,101178.59
2023-02-28T11:04:04.116Z,101173.56
2023-02-28T11:06:34.209Z,101176.56
2023-02-28T11:09:05.314Z,101168.97
2023-02-28T11:11:43.347Z,101169.66
2023-02-28T11:14:25.188Z,101175.19
2023-02-28T11:16:53.673Z,101163.44
2023-02-28T11:19:37.342Z,101161.13
2023-02-28T11:22:06.515Z,101153.66
2023-02-28T11:24:42.966Z,101160.31
2023-02-28T11:27:32.672Z,101150.28
2023-02-28T11:30:01.266Z,101152.97
2023-02-28T11:32:31.453Z,101147.56
2023-02-28T11:35:24.867Z,101144.72
2023-02-28T11:37:51.844Z,101135.91
2023-02-28T11:40:32.183Z,101146.47
2023-02-28T11:43:04.701Z,101142.13
2023-02-28T11:45:52.579Z,101126.56
2023-02-28T11:48:33.933Z,101125.88
2023-02-28T11:51:22.865Z,101131.41
2023-02-28T11:54:24.135Z,101116.94
2023-02-28T11:57:01.795Z,101117.19
2023-02-28T12:00:17.146Z,101112.56
2023-02-28T12:02:59.120Z,101111.78
2023-02-28T12:05:33.928Z,101108.44
2023-02-28T12:08:21.319Z,101102.25
2023-02-28T12:11:18.674Z,101116.88
2023-02-28T12:14:06.354Z,101108.56
2023-02-28T12:16:58.279Z,101107.13
2023-02-28T12:19:50.393Z,101095.75
2023-02-28T12:22:44.111Z,101099.81
2023-02-28T12:25:31.074Z,101088.13
2023-02-28T12:27:58.117Z,101082.34
2023-02-28T12:30:29.296Z,101086.25
2023-02-28T12:33:14.247Z,101081.13
2023-02-28T12:35:46.370Z,101072.75
2023-02-28T12:38:18.794Z,101081.41
2023-02-28T12:41:07.078Z,101076.50
2023-02-28T12:43:39.069Z,101074.66
2023-02-28T12:46:24.406Z,101068.69
2023-02-28T12:49:25.685Z,101065.94
2023-02-28T12:51:53.129Z,101069.63
2023-02-28T12:54:38.474Z,101058.09
2023-02-28T12:57:32.588Z,101065.13
2023-02-28T13:00:03.309Z,101064.88
2023-02-28T13:02:55.394Z,101055.81
2023-02-28T13:05:59.746Z,101044.25
2023-02-28T13:08:29.634Z,101058.91
2023-02-28T13:10:56.578Z,101054.28
2023-02-28T13:13:27.080Z,101052.66
2023-02-28T13:16:01.477Z,101052.00
2023-02-28T13:18:57.273Z,101052.97
2023-02-28T13:21:30.013Z,101040.88
2023-02-28T13:23:59.567Z,101048.63
2023-02-28T13:26:52.062Z,101045.22
2023-02-28T13:29:23.973Z,101044.69
2023-02-28T13:32:12.378Z,101039.41
2023-02-28T13:34:41.410Z,101034.53
2023-02-28T13:37:22.764Z,101044.28
2023-02-28T13:39:50.022Z,101033.16
2023-02-28T13:42:38.219Z,101038.31
2023-02-28T13:45:06.593Z,101035.19
2023-02-28T13:47:37.423Z,101023.41
2023-02-28T13:50:29.010Z,101030.22
2023-02-28T13:53:07.864Z,101025.72
2023-02-28T13:55:37.862Z,101039.09
2023-02-28T13:58:40.180Z,101030.44
2023-02-28T14:01:06.953Z,101032.38
2023-02-28T14:03:53.412Z,101027.03
2023-02-28T14:06:31.509Z,101026.09
2023-02-28T14:09:31.661Z,101028.53
2023-02-28T14:12:19.378Z,101038.69
2023-02-28T14:14:47.353Z,101029.34
2023-02-28T14:17:18.357Z,101026.09
2023-02-28T14:19:51.068Z,101028.81
2023-02-28T14:22:49.275Z,101022.84
2023-02-28T14:25:45.185Z,101025.28
2023-02-28T14:28:26.780Z,101024.09
2023-02-28T14:31:08.863Z,101019.91
2023-02-28T14:33:51.744Z,101013.09
2023-02-28T14:36:22.447Z,101007.41
2023-02-28T14:39:05.670Z,101003.06
2023-02-28T14:41:38.397Z,101010.41
2023-02-28T14:44:19.833Z,101008.63
2023-02-28T14:47:05.461Z,101003.59
2023-02-28T14:49:34.187Z,101006.31
2023-02-28T14:52:25.941Z,101002.53
2023-02-28T14:55:01.835Z,101004.41
2023-02-28T14:57:42.993Z,101005.81
2023-02-28T15:00:34.360Z,101004.19
2023-02-28T15:03:22.946Z,101006.31
2023-02-28T15:06:02.378Z,101005.50
2023-02-28T15:08:36.874Z,101004.19
2023-02-28T15:11:23.901Z,101002.25
2023-02-28T15:13:57.514Z,100996.84
2023-02-28T15:16:40.005Z,101007.41
2023-02-28T15:19:24.033Z,101006.34
2023-02-28T15:22:02.902Z,101003.75
2023-02-28T15:24:45.741Z,101015.00
2023-02-28T15:27:35.623Z,101006.59
2023-02-28T15:30:18.973Z,101006.06
2023-02-28T15:32:46.122Z,101010.66
2023-02-28T15:35:20.665Z,101008.38
2023-02-28T15:38:16.603Z,101012.69
2023-02-28T15:41:00.134Z,101007.97
2023-02-28T15:43:44.065Z,101009.88
2023-02-28T15:46:14.522Z,101016.38
2023-02-28T15:48:56.304Z,101006.72
2023-02-28T15:51:30.577Z,101012.31
2023-02-28T15:54:10.377Z,100999.94
2023-02-28T15:56:45.805Z,101003.91
2023-02-28T15:59:32.664Z,101004.41
2023-02-28T16:02:22.364Z,101001.44
2023-02-28T16:05:01.072Z,101003.59
2023-02-28T16:07:30.970Z,101011.03
2023-02-28T16:09:58.776Z,101013.47
2023-02-28T16:12:32.400Z,101009.00
2023-02-28T16:15:03.964Z,101010.91
2023-02-28T16:17:36.313Z,101006.28
2023-02-28T16:20:28.365Z,101008.94
2023-02-28T16:22:57.176Z,101011.53
2023-02-28T16:25:38.767Z,101015.69
2023-02-28T16:28:13.474Z,101018.41
2023-02-28T16:30:40.857Z,101015.63
2023-02-28T16:33:10.859Z,101015.63
2023-02-28T16:35:38.934Z,101023.09
2023-02-28T16:38:05.757Z,101016.22
2023-02-28T16:40:36.757Z,101018.91
2023-02-28T16:43:11.274Z,101026.91
2023-02-28T16:45:38.302Z,101027.84
2023-02-28T16:48:05.146Z,101027.28
2023-02-28T16:50:33.716Z,101022.63
2023-02-28T16:53:01.527Z,101022.78
2023-02-28T16:55:28.950Z,101025.84
2023-02-28T16:57:59.696Z,101031.25
2023-02-28T17:00:34.681Z,101029.19
2023-02-28T17:03:04.199Z,101033.63
2023-02-28T17:05:39.870Z,101039.31
2023-02-28T17:08:06.811Z,101039.31
2023-02-28T17:10:33.772Z,101036.97
2023-02-28T17:13:13.150Z,101032.78
2023-02-28T17:15:45.909Z,101038.16
2023-02-28T17:18:20.244Z,101030.94
2023-02-28T17:20:47.625Z,101042.16
2023-02-28T17:23:14.869Z,101039.59
2023-02-28T17:25:41.871Z,101036.78
2023-02-28T17:28:10.300Z,101048.56
2023-02-28T17:30:37.259Z,101047.50
2023-02-28T17:33:06.480Z,101040.47
2023-02-28T17:35:33.918Z,101046.34
2023-02-28T17:38:00.759Z,101046.88
2023-02-28T17:40:28.095Z,101052.69
2023-02-28T17:42:57.804Z,101049.03
2023-02-28T17:45:25.843Z,101042.03
2023-02-28T17:47:52.805Z,101051.38
2023-02-28T17:50:22.243Z,101044.84
2023-02-28T17:52:51.573Z,101052.56
2023-02-28T17:55:20.105Z,101042.28
2023-02-28T17:57:47.239Z,101033.75
2023-02-28T18:00:18.440Z,101046.34
2023-02-28T18:02:45.991Z,101046.94
2023-02-28T18:05:13.102Z,101039.78
2023-02-28T18:07:41.900Z,101035.19
2023-02-28T18:10:20.839Z,101052.38
2023-02-28T18:12:52.153Z,101043.72
2023-02-28T18:15:23.988Z,101040.22
2023-02-28T18:17:51.554Z,101043.59
2023-02-28T18:20:19.088Z,101044.28
2023-02-28T18:22:46.201Z,101041.84
2023-02-28T18:25:18.287Z,101036.94
2023-02-28T18:27:59.505Z,101044.38
2023-02-28T18:30:31.020Z,101042.03
2023-02-28T18:33:00.034Z,101045.53
2023-02-28T18:35:37.384Z,101054.31
2023-02-28T18:38:16.898Z,101046.44
2023-02-28T18:40:51.623Z,101051.47
2023-02-28T18:43:19.385Z,101053.09
2023-02-28T18:45:46.177Z,101046.56
2023-02-28T18:48:15.052Z,101043.31
2023-02-28T18:50:42.729Z,101043.56
2023-02-28T18:53:11.400Z,101037.81
2023-02-28T18:55:52.825Z,101040.25
2023-02-28T18:58:19.800Z,101045.38
2023-02-28T19:00:48.459Z,101043.16
2023-02-28T19:03:15.526Z,101047.88
2023-02-28T19:05:42.378Z,101045.81
2023-02-28T19:08:09.371Z,101045.13
2023-02-28T19:10:41.043Z,101049.22
2023-02-28T19:13:08.019Z,101048.81
2023-02-28T19:15:34.920Z,101050.78
2023-02-28T19:18:02.054Z,101042.38
2023-02-28T19:20:29.044Z,101045.88
2023-02-28T19:22:55.821Z,101053.72
2023-02-28T19:25:24.167Z,101055.72
2023-02-28T19:27:55.320Z,101050.34
2023-02-28T19:30:25.069Z,101048.72
2023-02-28T19:32:51.952Z,101040.72
2023-02-28T19:35:18.880Z,101043.75
2023-02-28T19:37:45.701Z,101045.59
2023-02-28T19:40:13.872Z,101042.91
2023-02-28T19:42:41.098Z,101048.28
2023-02-28T19:45:10.207Z,101045.97
2023-02-28T19:47:38.395Z,101043.41
2023-02-28T19:50:06.561Z,101053.94
2023-02-28T19:52:34.808Z,101045.53
2023-02-28T19:55:01.740Z,101042.50
2023-02-28T19:57:31.822Z,101044.59
2023-02-28T19:59:58.863Z,101041.47
2023-02-28T20:02:26.363Z,101034.94
2023-02-28T20:04:54.929Z,101046.94
2023-02-28T20:07:22.589Z,101045.34
2023-02-28T20:09:52.319Z,101045.56
2023-02-28T20:12:24.889Z,101044.16
2023-02-28T20:14:52.424Z,101040.91
2023-02-28T20:17:19.535Z,101044.16
2023-02-28T20:19:47.507Z,101046.84
2023-02-28T20:22:14.480Z,101043.47
2023-02-28T20:24:41.332Z,101054.44
2023-02-28T20:27:08.324Z,101054.53
2023-02-28T20:29:35.887Z,101051.97
2023-02-28T20:32:02.893Z,101060.13
2023-02-28T20:34:29.691Z,101058.38
2023-02-28T20:36:56.753Z,101055.59
2023-02-28T20:39:23.875Z,101051.84
2023-02-28T20:41:51.246Z,101058.59
2023-02-28T20:44:18.096Z,101053.69
2023-02-28T20:46:44.861Z,101052.06
2023-02-28T20:49:11.739Z,101047.19
2023-02-28T20:51:40.262Z,101047.19
2023-02-28T20:54:08.747Z,101039.03
2023-02-28T20:56:35.646Z,101044.16
2023-02-28T20:59:02.414Z,101037.16
2023-02-28T21:01:30.389Z,101028.53
2023-02-28T21:04:02.991Z,101032.53
2023-02-28T21:06:32.513Z,101041.13
2023-02-28T21:08:59.819Z,101037.16
2023-02-28T21:11:29.413Z,101032.41
2023-02-28T21:13:59.396Z,101027.38
2023-02-28T21:16:29.615Z,101035.09
2023-02-28T21:19:04.070Z,101028.56
2023-02-28T21:21:35.952Z,101025.19
2023-02-28T21:24:03.067Z,101022.97
2023-02-28T21:26:31.479Z,101034.38
2023-02-28T21:29:02.335Z,101029.84
2023-02-28T21:31:32.035Z,101030.16
2023-02-28T21:34:00.167Z,101033.66
2023-02-28T21:36:32.916Z,101021.66
2023-02-28T21:39:08.069Z,101026.94
2023-02-28T21:41:35.316Z,101026.94
2023-02-28T21:44:02.263Z,101027.88
2023-02-28T21:46:30.840Z,101023.88
2023-02-28T21:48:58.373Z,101022.47
2023-02-28T21:51:31.441Z,101031.53
2023-02-28T21:53:59.638Z,101029.31
2023-02-28T21:56:29.280Z,101040.81
2023-02-28T21:59:00.555Z,101039.19
2023-02-28T22:01:39.214Z,101036.78
2023-02-28T22:04:10.045Z,101038.25
2023-02-28T22:06:39.502Z,101031.50
2023-02-28T22:09:08.790Z,101037.56
2023-02-28T22:11:37.298Z,101037.81
2023-02-28T22:14:04.200Z,101038.63
2023-02-28T22:16:44.233Z,101040.50
2023-02-28T22:19:15.188Z,101033.13
2023-02-28T22:21:42.152Z,101035.69
2023-02-28T22:24:10.729Z,101035.81
2023-02-28T22:26:38.405Z,101035.00
2023-02-28T22:29:05.579Z,101035.91
2023-02-28T22:31:34.911Z,101043.00
2023-02-28T22:34:06.225Z,101044.06
2023-02-28T22:36:34.065Z,101045.88
2023-02-28T22:39:02.385Z,101044.25
2023-02-28T22:41:29.969Z,101050.19
2023-02-28T22:43:59.260Z,101035.66
2023-02-28T22:46:27.619Z,101041.69
2023-02-28T22:48:54.749Z,101039.03
2023-02-28T22:51:24.071Z,101035.88
2023-02-28T22:53:52.020Z,101035.28
2023-02-28T22:56:21.150Z,101044.81
2023-02-28T22:58:55.918Z,101033.28
2023-02-28T23:01:25.009Z,101035.75
2023-02-28T23:03:52.761Z,101038.41
2023-02-28T23:06:26.516Z,101037.59
2023-02-28T23:08:55.849Z,101028.28
2023-02-28T23:11:35.622Z,101033.53
2023-02-28T23:14:03.180Z,101026.78
2023-02-28T23:16:38.950Z,101028.72
2023-02-28T23:19:11.372Z,101040.69
2023-02-28T23:21:39.131Z,101037.44
2023-02-28T23:24:11.159Z,101031.50
2023-02-28T23:26:42.043Z,101029.06
2023-02-28T23:29:09.030Z,101026.72
2023-02-28T23:31:36.450Z,101024.16
2023-02-28T23:34:03.437Z,101026.59
2023-02-28T23:36:30.786Z,101030.09
2023-02-28T23:38:57.780Z,101026.81
2023-02-28T23:41:25.433Z,101023.66
2023-02-28T23:43:53.600Z,101029.94
2023-02-28T23:46:21.252Z,101024.81
2023-02-28T23:48:48.000Z,101025.72
2023-02-28T23:51:17.762Z,101031.78
2023-02-28T23:53:50.068Z,101026.66
2023-02-28T23:56:21.877Z,101025.63
2023-02-28T23:58:49.340Z,101030.94
